Time;durP1;ratioP1;P1;durP2;ratioP2;P2;SDS_P1;SDS_P2;PMS_P1;PMS_P2;Temp;Humidity;BMP_temperature;BMP_pressure;BME280_temperature;BME280_humidity;BME280_pressure;Samples;Min_cycle;Max_cycle;Signal;HPM_P1;HPM_P2
2023/12/15 00:01:49;;;;;;;6.78;3.60;;;16.70;60.10;;;;;;4940560;27;45657;-59
2023/12/15 00:04:18;;;;;;;3.30;2.80;;;16.80;59.10;;;;;;4931325;27;45496;-59
2023/12/15 00:07:16;;;;;;;4.00;2.75;;;16.80;59.40;;;;;;4936906;27;45491;-59
2023/12/15 00:10:12;;;;;;;4.97;2.75;;;16.70;59.30;;;;;;4928744;27;47253;-59
2023/12/15 00:12:43;;;;;;;4.68;3.13;;;16.70;59.20;;;;;;4909849;27;45275;-59
2023/12/15 00:15:32;;;;;;;7.65;2.90;;;16.80;59.30;;;;;;4917929;27;45554;-59
2023/12/15 00:18:18;;;;;;;5.82;2.97;;;16.80;59.40;;;;;;4933290;27;45386;-59
2023/12/15 00:21:06;;;;;;;4.15;3.00;;;16.80;59.50;;;;;;4918822;27;45437;-59
2023/12/15 00:24:02;;;;;;;3.00;2.70;;;16.80;59.60;;;;;;4949998;27;45112;-59
2023/12/15 00:26:29;;;;;;;3.85;2.65;;;16.80;60.00;;;;;;4923612;27;45436;-59
2023/12/15 00:29:18;;;;;;;4.50;2.75;;;16.80;59.70;;;;;;4940944;27;45406;-59
2023/12/15 00:31:52;;;;;;;4.32;2.53;;;16.80;59.60;;;;;;4941038;27;47559;-59
2023/12/15 00:34:18;;;;;;;3.38;2.40;;;16.80;59.80;;;;;;4949583;27;45033;-59
2023/12/15 00:39:26;;;;;;;7.30;2.95;;;16.80;59.60;;;;;;4917124;27;45729;-59
2023/12/15 00:42:07;;;;;;;4.95;2.40;;;16.80;59.50;;;;;;4933771;27;45887;-59
2023/12/15 00:44:36;;;;;;;6.95;2.58;;;16.80;59.20;;;;;;4920690;27;45371;-59
2023/12/15 00:50:12;;;;;;;3.58;2.50;;;16.80;59.30;;;;;;4917496;27;44937;-59
2023/12/15 00:52:55;;;;;;;6.43;2.75;;;16.80;59.20;;;;;;4956529;27;46863;-59
2023/12/15 00:56:12;;;;;;;4.55;2.50;;;16.80;59.20;;;;;;4969088;27;45285;-59
2023/12/15 00:59:04;;;;;;;6.13;2.53;;;16.80;59.20;;;;;;4955694;27;45070;-59
2023/12/15 01:04:20;;;;;;;6.55;2.95;;;16.80;59.20;;;;;;4909312;27;46085;-59
2023/12/15 01:07:15;;;;;;;3.80;2.20;;;16.80;59.20;;;;;;4952124;27;45384;-59
2023/12/15 01:10:17;;;;;;;4.55;2.13;;;16.80;59.20;;;;;;4931899;27;45651;-59
2023/12/15 01:12:45;;;;;;;6.70;2.67;;;16.80;59.30;;;;;;4960735;27;45271;-59
2023/12/15 01:15:26;;;;;;;5.63;2.63;;;16.80;59.30;;;;;;4944468;27;45963;-59
2023/12/15 01:18:31;;;;;;;5.97;2.72;;;16.80;59.30;;;;;;4928640;27;45278;-59
2023/12/15 01:21:51;;;;;;;3.38;2.15;;;16.80;59.30;;;;;;4930350;27;45155;-59
2023/12/15 01:24:44;;;;;;;4.80;2.22;;;16.80;59.30;;;;;;4940284;27;45428;-59
2023/12/15 01:27:26;;;;;;;7.82;2.22;;;16.80;59.40;;;;;;4958987;27;46342;-59
2023/12/15 01:29:53;;;;;;;2.67;1.73;;;16.80;59.40;;;;;;4922655;27;45040;-59
2023/12/15 01:32:43;;;;;;;3.97;2.30;;;16.80;59.50;;;;;;4926568;27;45203;-59
2023/12/15 01:35:28;;;;;;;3.63;2.35;;;16.80;59.40;;;;;;4941724;27;45028;-59
2023/12/15 01:38:14;;;;;;;4.15;2.65;;;16.80;58.90;;;;;;4950373;27;45982;-59
2023/12/15 01:41:08;;;;;;;4.18;2.50;;;16.70;58.50;;;;;;4924079;27;45399;-59
2023/12/15 01:43:56;;;;;;;3.38;2.28;;;16.70;58.50;;;;;;4930279;27;45324;-59
2023/12/15 01:46:55;;;;;;;5.65;2.33;;;16.70;58.30;;;;;;4954673;27;44982;-59
2023/12/15 01:49:44;;;;;;;4.00;2.30;;;16.70;58.20;;;;;;4936771;27;45839;-59
2023/12/15 01:52:33;;;;;;;4.75;2.40;;;16.70;58.10;;;;;;4937884;27;45327;-59
2023/12/15 01:55:27;;;;;;;5.65;2.55;;;16.70;57.90;;;;;;4948397;27;45301;-59
2023/12/15 01:57:54;;;;;;;4.90;2.67;;;16.70;57.70;;;;;;4937730;27;45232;-59
2023/12/15 02:00:38;;;;;;;3.95;2.60;;;16.70;57.80;;;;;;4935650;27;46440;-59
2023/12/15 02:03:05;;;;;;;4.90;2.70;;;16.70;57.70;;;;;;4944347;27;45343;-59
2023/12/15 02:05:46;;;;;;;3.42;2.28;;;16.70;57.60;;;;;;4933851;27;45611;-59
2023/12/15 02:08:15;;;;;;;6.03;3.00;;;16.70;58.70;;;;;;4932116;27;45394;-59
2023/12/15 02:11:03;;;;;;;5.10;2.70;;;16.70;57.50;;;;;;4945557;27;45770;-59
2023/12/15 02:13:59;;;;;;;4.32;2.58;;;16.70;57.40;;;;;;4964073;27;45078;-59
2023/12/15 02:17:10;;;;;;;4.53;2.47;;;16.70;57.40;;;;;;4945311;27;45293;-59
2023/12/15 02:19:37;;;;;;;4.78;2.75;;;16.70;57.40;;;;;;4940135;27;45118;-59
2023/12/15 02:22:04;;;;;;;5.57;2.78;;;16.70;57.30;;;;;;4931734;27;46045;-59
2023/12/15 02:24:54;;;;;;;3.85;2.45;;;16.70;58.40;;;;;;4956226;27;45031;-59
2023/12/15 02:27:22;;;;;;;4.15;2.45;;;16.70;57.10;;;;;;4955792;27;45656;-59
2023/12/15 02:29:58;;;;;;;6.15;2.80;;;16.70;57.20;;;;;;4948948;27;45612;-59
2023/12/15 02:35:06;;;;;;;4.22;2.63;;;16.60;57.20;;;;;;4917849;27;45065;-59
2023/12/15 02:38:07;;;;;;;4.60;2.53;;;16.70;57.40;;;;;;4968833;27;45250;-59
2023/12/15 02:41:24;;;;;;;5.00;2.83;;;16.60;57.20;;;;;;4941424;27;45710;-59
2023/12/15 02:43:51;;;;;;;2.83;2.13;;;16.60;57.20;;;;;;4937967;27;46624;-59
2023/12/15 02:46:18;;;;;;;4.07;2.55;;;16.70;57.40;;;;;;4915498;27;45116;-59
2023/12/15 02:48:47;;;;;;;4.70;2.60;;;16.70;57.40;;;;;;4937024;27;45051;-59
2023/12/15 02:51:33;;;;;;;4.22;2.42;;;16.60;57.20;;;;;;4946285;27;45109;-59
2023/12/15 02:56:51;;;;;;;5.03;2.50;;;16.60;57.20;;;;;;4924444;27;44914;-59
2023/12/15 02:59:53;;;;;;;5.25;2.95;;;16.70;57.40;;;;;;4922685;27;45162;-59
2023/12/15 03:02:21;;;;;;;5.00;3.00;;;16.60;57.10;;;;;;4929315;27;45146;-59
2023/12/15 03:04:48;;;;;;;5.35;2.67;;;16.60;57.20;;;;;;4934870;27;45300;-59
2023/12/15 03:07:44;;;;;;;4.75;2.60;;;16.60;57.20;;;;;;4933231;27;45316;-59
2023/12/15 03:10:43;;;;;;;3.90;2.67;;;16.70;57.30;;;;;;4950091;27;45419;-58
2023/12/15 03:13:40;;;;;;;4.28;2.70;;;16.60;57.10;;;;;;4956570;27;44814;-59
2023/12/15 03:16:38;;;;;;;6.60;2.53;;;16.60;56.80;;;;;;4926439;27;45826;-59
2023/12/15 03:19:26;;;;;;;3.70;2.25;;;16.60;57.00;;;;;;4944555;27;45546;-59
2023/12/15 03:21:53;;;;;;;5.18;2.83;;;16.60;57.10;;;;;;4916503;27;44922;-58
2023/12/15 03:24:20;;;;;;;5.38;2.90;;;16.60;57.30;;;;;;4943864;27;45377;-59
2023/12/15 03:27:25;;;;;;;5.20;2.97;;;16.60;57.20;;;;;;4933429;27;45280;-59
2023/12/15 03:30:07;;;;;;;7.63;2.85;;;16.60;57.20;;;;;;4941821;27;45234;-59
2023/12/15 03:32:51;;;;;;;5.97;2.60;;;16.60;57.10;;;;;;4933123;27;45143;-59
2023/12/15 03:35:41;;;;;;;4.00;2.47;;;16.60;57.20;;;;;;4932769;27;45276;-59
2023/12/15 03:38:08;;;;;;;4.65;2.72;;;16.60;57.20;;;;;;4914234;27;46359;-59
2023/12/15 03:40:35;;;;;;;4.07;2.63;;;16.60;57.20;;;;;;4924175;27;45200;-59
2023/12/15 03:43:29;;;;;;;3.55;2.58;;;16.70;57.40;;;;;;4954894;27;45276;-59
2023/12/15 03:46:21;;;;;;;4.93;3.00;;;16.70;57.40;;;;;;4956058;27;45358;-58
2023/12/15 03:49:21;;;;;;;5.57;3.03;;;16.60;57.30;;;;;;4920690;27;45483;-58
2023/12/15 03:52:12;;;;;;;4.00;2.67;;;16.60;57.30;;;;;;4925839;27;45232;-59
2023/12/15 03:54:39;;;;;;;3.63;2.53;;;16.60;57.40;;;;;;4943534;27;45114;-59
2023/12/15 03:57:26;;;;;;;6.07;2.85;;;16.60;57.40;;;;;;4929541;27;45252;-59
2023/12/15 04:00:16;;;;;;;5.85;2.72;;;16.60;57.40;;;;;;4923864;27;45695;-59
2023/12/15 04:02:56;;;;;;;3.78;2.85;;;16.60;57.50;;;;;;4920378;27;45273;-59
2023/12/15 04:05:36;;;;;;;5.03;2.80;;;16.60;57.60;;;;;;4942490;27;44933;-59
2023/12/15 04:08:31;;;;;;;4.95;2.70;;;16.60;57.70;;;;;;4924753;27;45478;-59
2023/12/15 04:13:39;;;;;;;5.07;3.08;;;16.60;57.40;;;;;;4926857;27;45054;-59
2023/12/15 04:16:33;;;;;;;5.32;2.83;;;16.60;57.40;;;;;;4938573;27;45078;-59
2023/12/15 04:19:24;;;;;;;5.22;2.47;;;16.60;57.40;;;;;;4946843;27;45535;-59
2023/12/15 04:22:19;;;;;;;5.03;2.67;;;16.60;57.40;;;;;;4941753;27;46515;-59
2023/12/15 04:25:19;;;;;;;3.50;2.42;;;16.60;57.30;;;;;;4947084;27;45517;-58
2023/12/15 04:27:46;;;;;;;4.25;2.72;;;16.70;57.40;;;;;;4917479;27;45251;-59
2023/12/15 04:33:16;;;;;;;2.67;2.30;;;16.60;57.30;;;;;;4915399;27;45574;-59
2023/12/15 04:35:45;;;;;;;3.00;2.30;;;16.70;57.50;;;;;;4927130;27;45195;-59
2023/12/15 04:38:15;;;;;;;4.95;2.72;;;16.60;57.50;;;;;;4972986;27;45321;-59
2023/12/15 04:40:42;;;;;;;4.78;2.63;;;16.60;57.60;;;;;;4927504;27;45482;-58
2023/12/15 04:43:34;;;;;;;4.60;2.40;;;16.60;57.60;;;;;;4930773;27;46627;-59
2023/12/15 04:46:02;;;;;;;3.85;2.58;;;16.60;57.60;;;;;;4948198;27;45335;-59
2023/12/15 04:48:32;;;;;;;6.75;2.63;;;16.60;57.80;;;;;;4936699;27;44907;-59
2023/12/15 04:51:32;;;;;;;6.38;3.00;;;16.60;57.80;;;;;;4916366;27;45344;-59
2023/12/15 04:54:30;;;;;;;5.05;2.60;;;16.60;57.90;;;;;;4946755;27;46710;-59
2023/12/15 04:56:57;;;;;;;3.50;2.30;;;16.50;58.00;;;;;;4959255;27;45841;-59
2023/12/15 04:59:39;;;;;;;4.75;2.75;;;16.50;59.40;;;;;;4952395;27;45424;-59
2023/12/15 05:02:21;;;;;;;2.70;1.98;;;16.50;58.20;;;;;;4933311;27;45174;-59
2023/12/15 05:05:07;;;;;;;4.90;2.70;;;16.50;58.50;;;;;;4929570;27;45314;-58
2023/12/15 05:07:36;;;;;;;4.40;2.50;;;16.60;58.40;;;;;;4937724;27;45262;-59
2023/12/15 05:10:19;;;;;;;4.50;2.55;;;16.60;58.40;;;;;;4969345;27;45404;-59
2023/12/15 05:13:18;;;;;;;4.55;3.00;;;16.60;58.30;;;;;;4952225;27;45097;-59
2023/12/15 05:16:09;;;;;;;4.18;2.35;;;16.60;58.30;;;;;;4934965;27;45912;-59
2023/12/15 05:19:27;;;;;;;4.18;2.42;;;16.60;58.40;;;;;;4935566;27;45332;-58
2023/12/15 05:21:53;;;;;;;6.22;2.90;;;16.60;58.40;;;;;;4943063;27;45385;-59
2023/12/15 05:24:41;;;;;;;3.30;2.58;;;16.50;59.60;;;;;;4936453;27;45679;-59
2023/12/15 05:27:08;;;;;;;4.05;2.80;;;16.50;58.50;;;;;;4932982;27;46845;-59
2023/12/15 05:30:00;;;;;;;4.30;2.40;;;16.50;58.70;;;;;;4934684;27;45572;-59
2023/12/15 05:33:12;;;;;;;4.10;2.85;;;16.50;58.60;;;;;;4939083;27;45769;-58
2023/12/15 05:35:58;;;;;;;5.22;2.83;;;16.50;58.70;;;;;;4957583;27;45121;-58
2023/12/15 05:38:25;;;;;;;4.22;2.58;;;16.50;59.20;;;;;;4916413;27;47343;-58
2023/12/15 05:41:17;;;;;;;2.72;2.10;;;16.50;59.40;;;;;;4918562;27;45021;-58
2023/12/15 05:44:18;;;;;;;3.55;2.58;;;16.60;59.70;;;;;;4948330;27;45204;-58
2023/12/15 05:46:46;;;;;;;4.05;2.28;;;16.60;60.00;;;;;;4958285;27;45361;-58
2023/12/15 05:49:15;;;;;;;3.33;2.35;;;16.60;60.20;;;;;;4932988;27;46223;-58
2023/12/15 05:52:22;;;;;;;3.47;2.33;;;16.60;60.30;;;;;;4935626;27;45333;-58
2023/12/15 05:54:49;;;;;;;3.80;2.22;;;16.60;60.30;;;;;;4927949;27;45359;-58
2023/12/15 05:57:45;;;;;;;4.00;2.63;;;16.60;60.50;;;;;;4932308;27;45488;-58
2023/12/15 06:00:40;;;;;;;4.35;2.40;;;16.70;60.70;;;;;;4926325;27;46084;-58
2023/12/15 06:03:07;;;;;;;3.80;2.25;;;16.60;60.70;;;;;;4919196;27;45826;-58
2023/12/15 06:05:48;;;;;;;4.25;2.17;;;16.60;60.70;;;;;;4926979;27;45307;-58
2023/12/15 06:08:41;;;;;;;3.45;2.30;;;16.70;61.00;;;;;;4935572;27;45121;-58
2023/12/15 06:14:49;;;;;;;3.72;2.53;;;16.70;61.10;;;;;;4913444;27;45224;-58
2023/12/15 06:18:02;;;;;;;5.55;2.50;;;16.60;61.40;;;;;;4950708;27;45167;-58
2023/12/15 06:20:51;;;;;;;3.80;2.60;;;16.60;61.40;;;;;;4921208;27;45230;-58
2023/12/15 06:23:49;;;;;;;3.20;2.28;;;16.60;61.40;;;;;;4946138;27;46774;-58
2023/12/15 06:26:56;;;;;;;4.82;2.65;;;16.60;61.50;;;;;;4916084;27;45216;-58
2023/12/15 06:29:54;;;;;;;4.80;2.90;;;16.60;61.70;;;;;;4921819;27;45462;-58
2023/12/15 06:32:21;;;;;;;5.47;2.85;;;16.60;61.80;;;;;;4936288;27;45224;-58
2023/12/15 06:34:48;;;;;;;4.85;3.10;;;16.60;61.80;;;;;;4945275;27;46134;-58
2023/12/15 06:37:24;;;;;;;5.32;2.78;;;16.60;61.80;;;;;;4922488;27;45147;-58
2023/12/15 06:39:57;;;;;;;5.53;3.15;;;16.60;61.70;;;;;;4924400;27;45371;-57
2023/12/15 06:42:46;;;;;;;5.72;3.10;;;16.60;61.90;;;;;;4940691;27;45396;-57
2023/12/15 06:48:25;;;;;;;5.45;3.38;;;16.70;62.10;;;;;;4905841;27;45055;-58
2023/12/15 06:51:06;;;;;;;5.10;2.88;;;16.70;62.20;;;;;;4948951;27;45401;-58
2023/12/15 06:54:13;;;;;;;7.28;3.60;;;16.70;62.30;;;;;;4912072;27;45147;-58
2023/12/15 06:56:40;;;;;;;6.55;3.90;;;16.70;62.30;;;;;;4928126;27;46230;-58
2023/12/15 06:59:09;;;;;;;5.82;3.28;;;16.70;62.40;;;;;;4926104;27;45240;-58
2023/12/15 07:05:15;;;;;;;5.93;3.25;;;16.70;62.20;;;;;;4920609;27;45914;-58
2023/12/15 07:07:56;;;;;;;5.80;3.72;;;16.70;62.00;;;;;;4922366;27;46358;-58
2023/12/15 07:10:52;;;;;;;5.25;3.70;;;16.60;61.80;;;;;;4960021;27;45448;-57
2023/12/15 07:13:50;;;;;;;7.43;4.25;;;16.70;61.80;;;;;;4950290;27;45625;-57
2023/12/15 07:19:20;;;;;;;10.30;4.90;;;16.60;61.40;;;;;;4920729;27;45261;-58
2023/12/15 07:21:52;;;;;;;10.05;4.28;;;16.60;61.30;;;;;;4971875;27;45069;-58
2023/12/15 07:24:56;;;;;;;10.57;5.40;;;16.60;61.30;;;;;;4976190;27;45145;-57
2023/12/15 07:27:22;;;;;;;7.45;4.22;;;16.60;61.40;;;;;;4947334;27;45575;-58
2023/12/15 07:30:21;;;;;;;10.65;4.28;;;16.70;61.70;;;;;;4960726;27;46294;-58
2023/12/15 07:33:34;;;;;;;7.05;4.22;;;16.70;62.10;;;;;;4951798;27;44875;-57
2023/12/15 07:36:26;;;;;;;8.15;4.18;;;16.70;62.10;;;;;;4933980;27;45609;-58
2023/12/15 07:39:06;;;;;;;8.27;4.35;;;16.70;62.40;;;;;;4925168;27;45046;-58
2023/12/15 07:42:02;;;;;;;7.68;4.40;;;16.80;62.50;;;;;;4931963;27;46048;-57
2023/12/15 07:47:33;;;;;;;7.18;4.47;;;16.80;63.10;;;;;;4914244;27;45094;-58
2023/12/15 07:50:21;;;;;;;7.55;4.25;;;16.80;62.90;;;;;;4928423;27;45102;-57
2023/12/15 07:53:24;;;;;;;6.43;4.10;;;16.70;63.10;;;;;;4968210;27;46016;-57
2023/12/15 07:59:40;;;;;;;9.93;4.60;;;16.80;63.50;;;;;;4892460;27;45385;-58
2023/12/15 08:02:06;;;;;;;8.25;4.60;;;16.80;63.30;;;;;;4958422;27;45257;-58
2023/12/15 08:04:33;;;;;;;7.72;4.15;;;16.80;63.50;;;;;;4929043;27;45413;-58
2023/12/15 08:07:00;;;;;;;8.98;4.65;;;16.80;63.60;;;;;;4922065;27;45342;-58
2023/12/15 08:09:59;;;;;;;8.38;4.93;;;16.80;63.50;;;;;;4930809;27;45746;-58
2023/12/15 08:12:26;;;;;;;9.90;5.07;;;16.80;63.50;;;;;;4942971;27;45289;-58
2023/12/15 08:15:23;;;;;;;8.40;4.60;;;16.80;63.50;;;;;;4958283;27;46377;-57
2023/12/15 08:17:50;;;;;;;8.30;4.15;;;16.80;63.60;;;;;;4922289;27;45366;-58
2023/12/15 08:20:16;;;;;;;8.98;5.18;;;16.80;63.60;;;;;;4953724;27;45221;-58
2023/12/15 08:25:47;;;;;;;7.75;4.38;;;16.80;63.50;;;;;;4939299;27;45221;-57
2023/12/15 08:28:15;;;;;;;9.98;4.90;;;16.80;63.60;;;;;;4920451;27;45398;-58
2023/12/15 08:30:53;;;;;;;8.48;4.35;;;16.80;63.70;;;;;;4933118;27;45550;-58
2023/12/15 08:33:25;;;;;;;9.65;5.20;;;16.80;63.80;;;;;;4943868;27;45489;-58
2023/12/15 08:38:49;;;;;;;6.82;4.10;;;16.80;63.50;;;;;;4915521;27;45622;-58
2023/12/15 08:41:34;;;;;;;8.65;4.93;;;16.80;63.50;;;;;;4942539;27;45394;-58
2023/12/15 08:44:43;;;;;;;7.85;4.30;;;16.80;63.70;;;;;;4930372;27;45482;-58
2023/12/15 08:47:11;;;;;;;9.88;4.80;;;16.80;64.00;;;;;;4916368;27;45205;-58
2023/12/15 08:52:48;;;;;;;9.65;4.90;;;16.80;64.10;;;;;;4926960;27;45523;-58
2023/12/15 08:55:17;;;;;;;8.30;4.32;;;16.80;64.10;;;;;;4916374;27;45130;-58
2023/12/15 09:00:42;;;;;;;7.47;4.70;;;16.80;64.20;;;;;;4966867;27;45247;-58
2023/12/15 09:03:50;;;;;;;9.30;5.07;;;16.80;64.30;;;;;;4933599;27;45524;-58
2023/12/15 09:06:41;;;;;;;7.65;4.22;;;16.80;64.30;;;;;;4931723;27;45226;-58
2023/12/15 09:09:30;;;;;;;8.98;4.78;;;16.80;64.30;;;;;;4921464;27;46312;-58
2023/12/15 09:11:58;;;;;;;8.85;4.70;;;16.80;64.20;;;;;;4931001;27;45569;-58
2023/12/15 09:15:06;;;;;;;8.13;4.82;;;16.80;64.30;;;;;;4932148;27;45464;-58
2023/12/15 09:24:00;;;;;;;9.93;5.47;;;16.90;64.20;;;;;;4910645;27;45325;-58
2023/12/15 09:26:27;;;;;;;9.10;5.03;;;16.80;64.30;;;;;;4939620;27;45420;-58
2023/12/15 09:29:24;;;;;;;8.80;4.90;;;16.80;64.30;;;;;;4935282;27;45348;-58
2023/12/15 09:32:04;;;;;;;11.35;4.88;;;16.80;64.50;;;;;;4931337;27;46376;-58
2023/12/15 09:41:15;;;;;;;10.35;4.55;;;16.80;64.90;;;;;;4923019;27;45198;-57
2023/12/15 09:44:15;;;;;;;9.43;4.20;;;16.80;65.00;;;;;;4933412;27;46279;-58
2023/12/15 09:47:18;;;;;;;9.20;4.50;;;16.80;65.00;;;;;;4941755;27;45223;-58
2023/12/15 09:50:13;;;;;;;11.77;5.18;;;16.80;65.00;;;;;;4940788;27;45629;-57
2023/12/15 09:53:31;;;;;;;12.65;4.57;;;16.80;65.10;;;;;;4949217;27;45405;-57
2023/12/15 09:56:46;;;;;;;8.95;4.32;;;16.80;64.90;;;;;;4919705;27;47623;-57
2023/12/15 09:59:44;;;;;;;10.32;5.78;;;16.80;65.00;;;;;;4929244;27;45560;-58
2023/12/15 10:02:44;;;;;;;8.93;4.75;;;16.90;64.90;;;;;;4936179;27;45297;-58
2023/12/15 10:05:25;;;;;;;9.48;4.90;;;16.90;65.00;;;;;;4926882;27;45267;-58
2023/12/15 10:08:34;;;;;;;8.38;4.95;;;16.90;65.10;;;;;;4980587;27;46320;-58
2023/12/15 10:11:29;;;;;;;9.27;4.97;;;16.80;65.00;;;;;;4949157;27;45446;-58
2023/12/15 10:14:09;;;;;;;9.15;5.25;;;16.80;65.20;;;;;;4926224;27;45443;-58
2023/12/15 10:19:37;;;;;;;12.65;5.25;;;16.80;65.10;;;;;;4916286;27;45624;-58
2023/12/15 10:22:26;;;;;;;10.30;5.65;;;16.80;65.10;;;;;;4955924;27;45201;-58
2023/12/15 10:37:11;;;;;;;8.98;4.97;;;16.90;65.70;;;;;;4866195;22;45526;-57
2023/12/15 10:40:07;;;;;;;9.13;5.07;;;16.80;65.60;;;;;;4808358;28;45536;-56
2023/12/15 10:46:30;;;;;;;8.95;4.95;;;16.90;65.90;;;;;;4737231;28;45378;-57
2023/12/15 10:49:31;;;;;;;10.63;5.28;;;16.90;65.90;;;;;;4830233;28;45419;-57
2023/12/15 10:51:59;;;;;;;9.80;5.60;;;16.90;65.90;;;;;;4829087;28;45544;-57
2023/12/15 10:54:37;;;;;;;8.80;5.28;;;16.90;65.70;;;;;;4830767;28;46393;-57
2023/12/15 10:59:50;;;;;;;9.32;5.15;;;16.90;65.50;;;;;;4847757;28;46008;-57
2023/12/15 11:02:23;;;;;;;8.80;4.72;;;16.90;65.50;;;;;;4854712;28;45236;-58
2023/12/15 11:05:26;;;;;;;9.35;5.03;;;16.90;65.50;;;;;;4811497;28;47521;-56
2023/12/15 11:08:11;;;;;;;8.15;4.75;;;16.80;65.50;;;;;;4812709;28;45346;-57
2023/12/15 11:14:50;;;;;;;12.35;5.85;;;16.80;65.60;;;;;;4821694;28;45136;-57
2023/12/15 11:23:12;;;;;;;12.20;4.97;;;16.80;65.80;;;;;;4807162;28;45486;-56
2023/12/15 11:29:25;;;;;;;9.35;5.07;;;16.90;65.80;;;;;;4793048;28;45459;-57
2023/12/15 11:31:54;;;;;;;12.35;5.30;;;16.90;65.90;;;;;;4837597;28;45343;-58
2023/12/15 11:34:41;;;;;;;10.20;4.88;;;16.90;66.00;;;;;;4825570;28;45363;-57
2023/12/15 11:37:08;;;;;;;11.15;5.93;;;16.90;66.00;;;;;;4843053;28;45618;-57
2023/12/15 11:39:52;;;;;;;9.73;5.25;;;16.90;65.90;;;;;;4848438;28;47573;-57
2023/12/15 11:42:26;;;;;;;11.38;5.35;;;16.90;66.10;;;;;;4817695;28;45304;-57
2023/12/15 11:47:34;;;;;;;9.50;5.13;;;16.90;65.90;;;;;;4802242;28;45314;-57
2023/12/15 11:50:20;;;;;;;9.85;5.32;;;16.90;66.10;;;;;;4831987;28;47290;-57
2023/12/15 11:52:47;;;;;;;10.43;5.32;;;16.80;66.20;;;;;;4843277;28;45444;-57
2023/12/15 11:55:17;;;;;;;12.25;6.13;;;16.90;66.30;;;;;;4829608;28;45370;-57
2023/12/15 11:57:44;;;;;;;9.82;5.70;;;16.90;66.40;;;;;;4831321;28;45403;-57
2023/12/15 12:00:47;;;;;;;11.38;5.60;;;16.90;66.30;;;;;;4840980;28;46230;-57
2023/12/15 12:03:30;;;;;;;10.80;6.07;;;16.90;66.30;;;;;;4836849;28;45299;-58
2023/12/15 12:09:40;;;;;;;12.30;5.70;;;16.90;66.30;;;;;;4834631;28;45701;-57
2023/12/15 12:12:34;;;;;;;13.43;5.65;;;16.90;66.30;;;;;;4827596;28;47391;-57
2023/12/15 12:15:05;;;;;;;9.38;5.20;;;16.90;66.30;;;;;;4827597;28;45419;-58
2023/12/15 12:17:35;;;;;;;10.93;5.93;;;16.90;66.30;;;;;;4844189;28;45394;-57
2023/12/15 12:20:28;;;;;;;10.82;5.68;;;16.90;66.30;;;;;;4842138;28;45610;-57
2023/12/15 12:22:58;;;;;;;15.85;5.68;;;16.90;66.30;;;;;;4826182;28;46556;-57
2023/12/15 12:25:47;;;;;;;10.40;5.68;;;16.90;66.30;;;;;;4832278;28;45548;-56
2023/12/15 12:28:34;;;;;;;9.40;5.50;;;17.00;67.20;;;;;;4828267;28;45432;-57
2023/12/15 12:31:00;;;;;;;10.75;5.93;;;16.90;67.80;;;;;;4822065;28;45611;-57
2023/12/15 12:33:50;;;;;;;12.85;5.93;;;16.90;67.80;;;;;;4838600;28;46299;-56
2023/12/15 12:37:10;;;;;;;15.02;6.30;;;16.90;68.10;;;;;;4858042;28;45474;-56
2023/12/15 12:39:47;;;;;;;10.80;5.70;;;16.90;68.20;;;;;;4825024;28;45552;-57
2023/12/15 12:42:15;;;;;;;9.57;5.03;;;16.90;68.60;;;;;;4841982;28;45523;-57
2023/12/15 12:45:15;;;;;;;10.05;5.45;;;16.90;68.70;;;;;;4833481;28;46873;-55
2023/12/15 12:48:46;;;;;;;10.45;5.63;;;16.90;69.10;;;;;;4807421;28;45475;-56
2023/12/15 12:51:27;;;;;;;10.45;5.22;;;16.80;69.30;;;;;;4821493;28;45460;-56
2023/12/15 12:54:31;;;;;;;9.95;5.07;;;16.90;69.80;;;;;;4823807;28;45307;-56
2023/12/15 13:00:06;;;;;;;11.15;5.82;;;16.90;70.20;;;;;;4791795;28;45391;-57
2023/12/15 13:03:06;;;;;;;11.70;6.15;;;16.90;70.20;;;;;;4821832;28;46014;-56
2023/12/15 13:08:28;;;;;;;11.40;5.43;;;16.90;70.30;;;;;;4817021;28;45715;-56
2023/12/15 13:11:36;;;;;;;8.02;5.00;;;16.90;70.20;;;;;;4830273;28;45218;-56
2023/12/15 13:14:29;;;;;;;8.73;5.05;;;16.90;70.40;;;;;;4841201;28;45354;-56
2023/12/15 13:16:56;;;;;;;8.57;4.43;;;16.90;70.50;;;;;;4813887;28;45363;-56
2023/12/15 13:19:25;;;;;;;8.43;5.20;;;17.00;70.80;;;;;;4846972;28;46143;-56
2023/12/15 13:22:26;;;;;;;9.77;5.30;;;16.90;70.80;;;;;;4879143;28;45626;-56
2023/12/15 13:25:27;;;;;;;10.57;5.82;;;17.00;70.70;;;;;;4826192;28;45401;-56
2023/12/15 13:28:20;;;;;;;10.82;5.65;;;16.90;70.90;;;;;;4813052;28;45654;-56
2023/12/15 13:31:04;;;;;;;9.77;6.20;;;16.90;71.20;;;;;;4775783;28;45459;-56
2023/12/15 13:33:46;;;;;;;10.02;5.38;;;16.90;71.40;;;;;;4763933;28;45312;-56
2023/12/15 13:36:24;;;;;;;9.70;5.22;;;16.90;71.50;;;;;;4787876;28;45491;-56
2023/12/15 13:38:51;;;;;;;10.15;5.85;;;16.90;71.70;;;;;;4782943;28;45324;-57
2023/12/15 13:41:51;;;;;;;7.63;5.38;;;16.90;71.80;;;;;;4803258;28;46514;-56
2023/12/15 13:44:20;;;;;;;9.77;5.65;;;16.90;72.20;;;;;;4774901;28;45179;-57
2023/12/15 13:50:11;;;;;;;9.88;5.72;;;16.90;72.40;;;;;;4777421;28;45216;-56
2023/12/15 13:53:09;;;;;;;8.18;5.07;;;16.90;72.10;;;;;;4791994;28;45916;-56
2023/12/15 13:55:59;;;;;;;13.25;6.13;;;16.90;72.10;;;;;;4769339;28;45638;-57
2023/12/15 13:58:48;;;;;;;10.65;4.75;;;16.90;72.00;;;;;;4787132;28;45474;-56
2023/12/15 14:05:07;;;;;;;8.60;4.82;;;16.90;72.10;;;;;;4741986;28;45427;-56
2023/12/15 14:07:34;;;;;;;9.82;4.72;;;17.00;72.20;;;;;;4776250;28;45322;-57
2023/12/15 14:10:03;;;;;;;8.30;4.75;;;17.00;72.10;;;;;;4777329;28;45531;-57
2023/12/15 14:12:46;;;;;;;10.48;5.00;;;17.00;72.00;;;;;;4808873;28;45455;-56
2023/12/15 14:15:33;;;;;;;8.20;4.88;;;17.00;72.10;;;;;;4804984;28;46331;-56
2023/12/15 14:21:33;;;;;;;9.48;4.95;;;16.90;72.10;;;;;;4769802;28;45396;-56
2023/12/15 14:24:25;;;;;;;7.47;4.30;;;16.90;72.10;;;;;;4802111;28;45464;-56
2023/12/15 14:27:20;;;;;;;10.18;4.93;;;16.90;72.40;;;;;;4786302;28;46720;-57
2023/12/15 14:30:10;;;;;;;7.57;4.53;;;16.90;72.60;;;;;;4808542;28;45299;-57
2023/12/15 14:32:38;;;;;;;8.73;4.85;;;16.90;72.70;;;;;;4757100;28;45634;-56
2023/12/15 14:35:20;;;;;;;8.20;4.65;;;16.90;72.80;;;;;;4787730;28;45471;-57
2023/12/15 14:37:58;;;;;;;8.05;4.65;;;16.90;72.80;;;;;;4772274;28;47118;-57
2023/12/15 14:40:45;;;;;;;7.15;4.00;;;16.90;72.60;;;;;;4808943;28;45570;-57
2023/12/15 14:45:53;;;;;;;9.88;4.65;;;16.90;72.60;;;;;;4760417;28;45364;-57
2023/12/15 14:48:42;;;;;;;8.43;4.10;;;17.00;72.80;;;;;;4808093;28;45352;-57
2023/12/15 14:51:34;;;;;;;7.53;4.55;;;17.00;72.60;;;;;;4761883;28;45384;-56
2023/12/15 14:54:03;;;;;;;8.75;4.55;;;17.00;72.60;;;;;;4779455;28;45586;-57
2023/12/15 14:56:56;;;;;;;6.55;4.25;;;17.00;72.70;;;;;;4811877;28;45386;-57
2023/12/15 14:59:25;;;;;;;7.10;4.32;;;17.00;72.90;;;;;;4801833;28;47481;-57
2023/12/15 15:02:15;;;;;;;7.45;3.72;;;17.00;72.40;;;;;;4794390;28;45598;-57
2023/12/15 15:04:42;;;;;;;6.75;4.13;;;17.00;72.40;;;;;;4793072;28;45505;-57
2023/12/15 15:07:35;;;;;;;9.00;4.20;;;17.00;72.50;;;;;;4813292;28;45478;-57
2023/12/15 15:10:04;;;;;;;6.70;3.95;;;17.00;72.60;;;;;;4794004;28;46065;-57
2023/12/15 15:12:53;;;;;;;6.32;3.28;;;16.90;72.50;;;;;;4796604;28;45197;-57
2023/12/15 15:15:20;;;;;;;10.40;4.53;;;16.90;72.60;;;;;;4780624;28;45599;-57
2023/12/15 15:18:20;;;;;;;10.77;4.60;;;16.90;72.80;;;;;;4821568;28;45414;-57
2023/12/15 15:21:04;;;;;;;8.02;4.03;;;16.90;72.60;;;;;;4797737;28;46918;-57
2023/12/15 15:23:35;;;;;;;7.53;3.75;;;16.90;72.70;;;;;;4756628;28;45504;-57
2023/12/15 15:26:28;;;;;;;8.32;3.97;;;16.90;72.90;;;;;;4794177;28;45289;-57
2023/12/15 15:28:58;;;;;;;9.38;3.70;;;16.90;72.80;;;;;;4776099;28;45475;-57
2023/12/15 15:31:56;;;;;;;7.33;4.27;;;17.00;73.10;;;;;;4790777;28;46974;-57
2023/12/15 15:34:51;;;;;;;8.52;3.38;;;17.00;73.10;;;;;;4787963;28;45236;-57
2023/12/15 15:41:30;;;;;;;5.93;3.42;;;17.00;73.10;;;;;;4768525;28;45181;-57
2023/12/15 15:44:31;;;;;;;6.15;3.25;;;17.00;72.70;;;;;;4783434;28;46534;-58
2023/12/15 15:47:25;;;;;;;6.53;3.22;;;17.00;72.90;;;;;;4780842;28;45263;-58
2023/12/15 15:50:07;;;;;;;6.82;3.30;;;17.00;73.30;;;;;;4779256;28;45281;-58
2023/12/15 15:52:36;;;;;;;5.75;3.35;;;17.00;74.20;;;;;;4788993;28;45372;-58
2023/12/15 15:55:05;;;;;;;7.55;3.38;;;17.00;73.00;;;;;;4774263;28;45825;-58
2023/12/15 15:57:46;;;;;;;6.53;3.53;;;17.00;73.00;;;;;;4783338;28;46119;-58
2023/12/15 16:00:14;;;;;;;6.85;3.50;;;17.00;73.00;;;;;;4761520;28;45442;-58
2023/12/15 16:02:57;;;;;;;7.20;3.45;;;16.90;73.20;;;;;;4763722;28;45532;-57
2023/12/15 16:05:53;;;;;;;6.95;3.88;;;16.90;73.20;;;;;;4766480;28;45803;-57
2023/12/15 16:08:20;;;;;;;7.97;3.28;;;17.00;73.00;;;;;;4786365;28;45232;-58
2023/12/15 16:10:49;;;;;;;9.38;3.83;;;16.90;73.10;;;;;;4841149;28;45581;-58
2023/12/15 16:13:17;;;;;;;9.60;3.97;;;16.90;73.30;;;;;;4804690;28;45591;-58
2023/12/15 16:15:46;;;;;;;6.40;3.03;;;16.90;73.40;;;;;;4786331;28;45483;-58
2023/12/15 16:18:47;;;;;;;6.32;3.25;;;16.90;73.30;;;;;;4763951;28;45282;-57